sensor_id;sensor_type;location;lat;lon;timestamp;P1;durP1;ratioP1;P2;durP2;ratioP2
75429;SDS011;64127;51.488;5.462;2023-09-19T00:01:35;9.57;;;3.33;;
75429;SDS011;64127;51.488;5.462;2023-09-19T00:04:07;7.40;;;2.80;;
75429;SDS011;64127;51.488;5.462;2023-09-19T00:06:41;9.37;;;2.93;;
75429;SDS011;64127;51.488;5.462;2023-09-19T00:09:15;9.03;;;3.13;;
75429;SDS011;64127;51.488;5.462;2023-09-19T00:11:47;11.07;;;3.47;;
75429;SDS011;64127;51.488;5.462;2023-09-19T00:14:24;12.50;;;2.97;;
75429;SDS011;64127;51.488;5.462;2023-09-19T00:16:56;8.77;;;2.90;;
75429;SDS011;64127;51.488;5.462;2023-09-19T00:19:29;11.00;;;3.20;;
75429;SDS011;64127;51.488;5.462;2023-09-19T00:22:01;7.83;;;3.00;;
75429;SDS011;64127;51.488;5.462;2023-09-19T00:24:33;9.33;;;3.30;;
75429;SDS011;64127;51.488;5.462;2023-09-19T00:27:05;10.73;;;3.57;;
75429;SDS011;64127;51.488;5.462;2023-09-19T00:29:39;12.23;;;3.27;;
75429;SDS011;64127;51.488;5.462;2023-09-19T00:32:11;10.27;;;3.03;;
75429;SDS011;64127;51.488;5.462;2023-09-19T00:34:43;9.87;;;3.20;;
75429;SDS011;64127;51.488;5.462;2023-09-19T00:37:15;7.93;;;2.97;;
75429;SDS011;64127;51.488;5.462;2023-09-19T00:39:49;11.33;;;3.07;;
75429;SDS011;64127;51.488;5.462;2023-09-19T00:42:21;8.40;;;2.83;;
75429;SDS011;64127;51.488;5.462;2023-09-19T00:44:53;12.30;;;3.50;;
75429;SDS011;64127;51.488;5.462;2023-09-19T00:47:25;11.50;;;3.30;;
75429;SDS011;64127;51.488;5.462;2023-09-19T00:50:00;8.83;;;2.93;;
75429;SDS011;64127;51.488;5.462;2023-09-19T00:52:34;9.63;;;3.50;;
75429;SDS011;64127;51.488;5.462;2023-09-19T00:55:10;7.00;;;3.23;;
75429;SDS011;64127;51.488;5.462;2023-09-19T00:57:45;10.23;;;3.37;;
75429;SDS011;64127;51.488;5.462;2023-09-19T01:00:18;9.40;;;2.67;;
75429;SDS011;64127;51.488;5.462;2023-09-19T01:02:52;8.33;;;3.20;;
75429;SDS011;64127;51.488;5.462;2023-09-19T01:05:25;9.37;;;3.20;;
75429;SDS011;64127;51.488;5.462;2023-09-19T01:07:57;6.27;;;2.70;;
75429;SDS011;64127;51.488;5.462;2023-09-19T01:10:30;9.50;;;3.10;;
75429;SDS011;64127;51.488;5.462;2023-09-19T01:13:17;9.83;;;3.00;;
75429;SDS011;64127;51.488;5.462;2023-09-19T01:16:21;7.80;;;2.63;;
75429;SDS011;64127;51.488;5.462;2023-09-19T01:22:23;9.97;;;3.23;;
75429;SDS011;64127;51.488;5.462;2023-09-19T01:31:11;11.27;;;3.33;;
75429;SDS011;64127;51.488;5.462;2023-09-19T01:33:58;10.57;;;2.70;;
75429;SDS011;64127;51.488;5.462;2023-09-19T01:36:33;11.03;;;3.37;;
75429;SDS011;64127;51.488;5.462;2023-09-19T01:39:09;9.00;;;3.10;;
75429;SDS011;64127;51.488;5.462;2023-09-19T01:44:59;11.23;;;3.47;;
75429;SDS011;64127;51.488;5.462;2023-09-19T01:47:55;9.60;;;2.97;;
75429;SDS011;64127;51.488;5.462;2023-09-19T01:50:50;9.53;;;3.70;;
75429;SDS011;64127;51.488;5.462;2023-09-19T01:53:43;10.93;;;3.10;;
75429;SDS011;64127;51.488;5.462;2023-09-19T01:56:23;11.17;;;3.53;;
75429;SDS011;64127;51.488;5.462;2023-09-19T01:59:08;10.37;;;3.20;;
75429;SDS011;64127;51.488;5.462;2023-09-19T02:01:45;9.30;;;3.00;;
75429;SDS011;64127;51.488;5.462;2023-09-19T02:04:19;8.20;;;2.70;;
75429;SDS011;64127;51.488;5.462;2023-09-19T02:06:51;7.47;;;2.93;;
75429;SDS011;64127;51.488;5.462;2023-09-19T02:09:24;8.20;;;2.93;;
75429;SDS011;64127;51.488;5.462;2023-09-19T02:11:57;7.27;;;3.00;;
75429;SDS011;64127;51.488;5.462;2023-09-19T02:14:30;9.13;;;3.10;;
75429;SDS011;64127;51.488;5.462;2023-09-19T02:17:03;9.63;;;3.10;;
75429;SDS011;64127;51.488;5.462;2023-09-19T02:19:40;10.70;;;2.87;;
75429;SDS011;64127;51.488;5.462;2023-09-19T02:22:12;8.60;;;2.80;;
75429;SDS011;64127;51.488;5.462;2023-09-19T02:24:45;10.97;;;3.37;;
75429;SDS011;64127;51.488;5.462;2023-09-19T02:27:19;10.47;;;3.00;;
75429;SDS011;64127;51.488;5.462;2023-09-19T02:29:51;9.67;;;3.07;;
75429;SDS011;64127;51.488;5.462;2023-09-19T02:32:23;12.43;;;3.30;;
75429;SDS011;64127;51.488;5.462;2023-09-19T02:34:55;6.10;;;2.83;;
75429;SDS011;64127;51.488;5.462;2023-09-19T02:37:27;9.43;;;2.83;;
75429;SDS011;64127;51.488;5.462;2023-09-19T02:39:59;8.93;;;2.90;;
75429;SDS011;64127;51.488;5.462;2023-09-19T02:42:32;10.27;;;2.83;;
75429;SDS011;64127;51.488;5.462;2023-09-19T02:45:04;9.00;;;2.73;;
75429;SDS011;64127;51.488;5.462;2023-09-19T02:47:37;5.93;;;2.30;;
75429;SDS011;64127;51.488;5.462;2023-09-19T02:50:11;8.23;;;2.60;;
75429;SDS011;64127;51.488;5.462;2023-09-19T02:52:45;7.30;;;3.07;;
75429;SDS011;64127;51.488;5.462;2023-09-19T02:55:21;7.27;;;3.17;;
75429;SDS011;64127;51.488;5.462;2023-09-19T02:57:53;7.40;;;2.70;;
75429;SDS011;64127;51.488;5.462;2023-09-19T03:00:26;8.47;;;2.70;;
75429;SDS011;64127;51.488;5.462;2023-09-19T03:02:58;8.20;;;2.90;;
75429;SDS011;64127;51.488;5.462;2023-09-19T03:05:31;9.07;;;2.70;;
75429;SDS011;64127;51.488;5.462;2023-09-19T03:08:03;9.43;;;3.00;;
75429;SDS011;64127;51.488;5.462;2023-09-19T03:10:36;5.67;;;2.67;;
75429;SDS011;64127;51.488;5.462;2023-09-19T03:13:08;7.80;;;2.80;;
75429;SDS011;64127;51.488;5.462;2023-09-19T03:15:41;10.00;;;2.83;;
75429;SDS011;64127;51.488;5.462;2023-09-19T03:18:19;5.50;;;2.70;;
75429;SDS011;64127;51.488;5.462;2023-09-19T03:20:53;7.43;;;2.70;;
75429;SDS011;64127;51.488;5.462;2023-09-19T03:23:27;7.60;;;2.50;;
75429;SDS011;64127;51.488;5.462;2023-09-19T03:26:00;6.63;;;2.50;;
75429;SDS011;64127;51.488;5.462;2023-09-19T03:28:33;7.47;;;2.63;;
75429;SDS011;64127;51.488;5.462;2023-09-19T03:31:06;6.37;;;2.60;;
75429;SDS011;64127;51.488;5.462;2023-09-19T03:33:38;8.63;;;2.77;;
75429;SDS011;64127;51.488;5.462;2023-09-19T03:36:11;7.77;;;2.80;;
75429;SDS011;64127;51.488;5.462;2023-09-19T03:38:44;6.60;;;2.90;;
75429;SDS011;64127;51.488;5.462;2023-09-19T03:41:16;8.03;;;2.93;;
75429;SDS011;64127;51.488;5.462;2023-09-19T03:43:48;7.00;;;2.93;;
75429;SDS011;64127;51.488;5.462;2023-09-19T03:46:20;9.77;;;2.73;;
75429;SDS011;64127;51.488;5.462;2023-09-19T03:48:53;9.13;;;2.80;;
75429;SDS011;64127;51.488;5.462;2023-09-19T03:51:26;6.67;;;3.03;;
75429;SDS011;64127;51.488;5.462;2023-09-19T03:53:57;6.07;;;2.80;;
75429;SDS011;64127;51.488;5.462;2023-09-19T03:56:29;7.63;;;2.67;;
75429;SDS011;64127;51.488;5.462;2023-09-19T03:59:02;7.40;;;2.80;;
75429;SDS011;64127;51.488;5.462;2023-09-19T04:01:34;10.47;;;3.00;;
75429;SDS011;64127;51.488;5.462;2023-09-19T04:04:06;8.53;;;2.80;;
75429;SDS011;64127;51.488;5.462;2023-09-19T04:06:43;8.13;;;2.90;;
75429;SDS011;64127;51.488;5.462;2023-09-19T04:09:15;6.80;;;2.63;;
75429;SDS011;64127;51.488;5.462;2023-09-19T04:11:47;11.43;;;3.13;;
75429;SDS011;64127;51.488;5.462;2023-09-19T04:14:21;10.63;;;2.80;;
75429;SDS011;64127;51.488;5.462;2023-09-19T04:16:53;10.40;;;2.90;;
75429;SDS011;64127;51.488;5.462;2023-09-19T04:19:25;8.63;;;3.17;;
75429;SDS011;64127;51.488;5.462;2023-09-19T04:21:57;6.57;;;2.70;;
75429;SDS011;64127;51.488;5.462;2023-09-19T04:24:29;8.47;;;3.37;;
75429;SDS011;64127;51.488;5.462;2023-09-19T04:27:02;7.77;;;2.73;;
75429;SDS011;64127;51.488;5.462;2023-09-19T04:29:35;10.90;;;3.20;;
75429;SDS011;64127;51.488;5.462;2023-09-19T04:32:09;9.03;;;3.03;;
75429;SDS011;64127;51.488;5.462;2023-09-19T04:34:41;9.17;;;3.03;;
75429;SDS011;64127;51.488;5.462;2023-09-19T04:37:13;6.87;;;3.17;;
75429;SDS011;64127;51.488;5.462;2023-09-19T04:39:46;12.03;;;3.07;;
75429;SDS011;64127;51.488;5.462;2023-09-19T04:42:18;10.93;;;3.27;;
75429;SDS011;64127;51.488;5.462;2023-09-19T04:44:50;9.53;;;3.20;;
75429;SDS011;64127;51.488;5.462;2023-09-19T04:47:25;8.83;;;3.40;;
75429;SDS011;64127;51.488;5.462;2023-09-19T04:49:58;8.33;;;2.80;;
75429;SDS011;64127;51.488;5.462;2023-09-19T04:52:30;9.33;;;2.77;;
75429;SDS011;64127;51.488;5.462;2023-09-19T04:55:02;8.63;;;2.97;;
75429;SDS011;64127;51.488;5.462;2023-09-19T04:57:35;9.77;;;2.77;;
75429;SDS011;64127;51.488;5.462;2023-09-19T05:00:08;10.10;;;3.40;;
75429;SDS011;64127;51.488;5.462;2023-09-19T05:02:43;8.70;;;2.50;;
75429;SDS011;64127;51.488;5.462;2023-09-19T05:05:16;10.07;;;2.83;;
75429;SDS011;64127;51.488;5.462;2023-09-19T05:07:50;8.80;;;2.97;;
75429;SDS011;64127;51.488;5.462;2023-09-19T05:10:24;8.97;;;2.70;;
75429;SDS011;64127;51.488;5.462;2023-09-19T05:12:56;11.73;;;3.40;;
75429;SDS011;64127;51.488;5.462;2023-09-19T05:15:29;9.40;;;3.47;;
75429;SDS011;64127;51.488;5.462;2023-09-19T05:18:01;6.60;;;2.60;;
75429;SDS011;64127;51.488;5.462;2023-09-19T05:20:33;8.77;;;2.70;;
75429;SDS011;64127;51.488;5.462;2023-09-19T05:23:09;7.22;;;3.00;;
75429;SDS011;64127;51.488;5.462;2023-09-19T05:25:44;12.70;;;3.00;;
75429;SDS011;64127;51.488;5.462;2023-09-19T05:28:16;10.00;;;3.30;;
75429;SDS011;64127;51.488;5.462;2023-09-19T05:30:48;10.43;;;2.90;;
75429;SDS011;64127;51.488;5.462;2023-09-19T05:33:21;9.07;;;2.80;;
75429;SDS011;64127;51.488;5.462;2023-09-19T05:35:53;6.47;;;2.53;;
75429;SDS011;64127;51.488;5.462;2023-09-19T05:38:25;10.53;;;3.00;;
75429;SDS011;64127;51.488;5.462;2023-09-19T05:40:59;7.57;;;2.53;;
75429;SDS011;64127;51.488;5.462;2023-09-19T05:43:32;10.17;;;2.93;;
75429;SDS011;64127;51.488;5.462;2023-09-19T05:46:05;9.07;;;2.60;;
75429;SDS011;64127;51.488;5.462;2023-09-19T05:48:37;9.43;;;3.00;;
75429;SDS011;64127;51.488;5.462;2023-09-19T05:51:11;7.23;;;2.83;;
75429;SDS011;64127;51.488;5.462;2023-09-19T05:53:43;8.10;;;2.70;;
75429;SDS011;64127;51.488;5.462;2023-09-19T05:56:15;9.07;;;3.00;;
75429;SDS011;64127;51.488;5.462;2023-09-19T05:58:47;7.93;;;2.93;;
75429;SDS011;64127;51.488;5.462;2023-09-19T06:01:19;6.40;;;2.80;;
75429;SDS011;64127;51.488;5.462;2023-09-19T06:03:53;9.67;;;2.77;;
75429;SDS011;64127;51.488;5.462;2023-09-19T06:06:25;10.73;;;3.33;;
75429;SDS011;64127;51.488;5.462;2023-09-19T06:08:57;6.63;;;2.70;;
75429;SDS011;64127;51.488;5.462;2023-09-19T06:11:29;10.60;;;2.80;;
75429;SDS011;64127;51.488;5.462;2023-09-19T06:14:04;9.20;;;2.73;;
75429;SDS011;64127;51.488;5.462;2023-09-19T06:16:36;10.60;;;3.20;;
75429;SDS011;64127;51.488;5.462;2023-09-19T06:19:09;8.03;;;2.93;;
75429;SDS011;64127;51.488;5.462;2023-09-19T06:21:41;10.47;;;3.50;;
75429;SDS011;64127;51.488;5.462;2023-09-19T06:24:13;10.63;;;3.07;;
75429;SDS011;64127;51.488;5.462;2023-09-19T06:26:46;8.80;;;2.83;;
75429;SDS011;64127;51.488;5.462;2023-09-19T06:29:19;6.43;;;2.50;;
75429;SDS011;64127;51.488;5.462;2023-09-19T06:31:52;7.90;;;3.13;;
75429;SDS011;64127;51.488;5.462;2023-09-19T06:34:24;10.43;;;3.37;;
75429;SDS011;64127;51.488;5.462;2023-09-19T06:36:57;10.53;;;3.30;;
75429;SDS011;64127;51.488;5.462;2023-09-19T06:39:29;12.70;;;3.50;;
75429;SDS011;64127;51.488;5.462;2023-09-19T06:42:02;12.00;;;3.83;;
75429;SDS011;64127;51.488;5.462;2023-09-19T06:44:35;9.57;;;2.93;;
75429;SDS011;64127;51.488;5.462;2023-09-19T06:47:07;9.67;;;3.30;;
75429;SDS011;64127;51.488;5.462;2023-09-19T06:49:41;7.87;;;3.07;;
75429;SDS011;64127;51.488;5.462;2023-09-19T06:52:15;10.33;;;3.10;;
75429;SDS011;64127;51.488;5.462;2023-09-19T06:54:47;12.27;;;3.60;;
75429;SDS011;64127;51.488;5.462;2023-09-19T06:57:21;11.00;;;3.00;;
75429;SDS011;64127;51.488;5.462;2023-09-19T06:59:53;10.53;;;3.10;;
75429;SDS011;64127;51.488;5.462;2023-09-19T07:02:25;10.13;;;3.50;;
75429;SDS011;64127;51.488;5.462;2023-09-19T07:04:57;8.43;;;2.90;;
75429;SDS011;64127;51.488;5.462;2023-09-19T07:07:29;8.53;;;3.00;;
75429;SDS011;64127;51.488;5.462;2023-09-19T07:10:02;7.40;;;2.83;;
75429;SDS011;64127;51.488;5.462;2023-09-19T07:12:41;11.83;;;3.17;;
75429;SDS011;64127;51.488;5.462;2023-09-19T07:15:14;11.53;;;3.10;;
75429;SDS011;64127;51.488;5.462;2023-09-19T07:17:46;8.10;;;3.20;;
75429;SDS011;64127;51.488;5.462;2023-09-19T07:20:19;9.80;;;3.30;;
75429;SDS011;64127;51.488;5.462;2023-09-19T07:22:51;10.90;;;3.30;;
75429;SDS011;64127;51.488;5.462;2023-09-19T07:25:26;8.60;;;3.10;;
75429;SDS011;64127;51.488;5.462;2023-09-19T07:27:59;13.40;;;3.40;;
75429;SDS011;64127;51.488;5.462;2023-09-19T07:30:32;10.57;;;3.97;;
75429;SDS011;64127;51.488;5.462;2023-09-19T07:33:12;9.90;;;3.10;;
75429;SDS011;64127;51.488;5.462;2023-09-19T07:35:45;7.60;;;2.90;;
75429;SDS011;64127;51.488;5.462;2023-09-19T07:38:18;9.70;;;2.90;;
75429;SDS011;64127;51.488;5.462;2023-09-19T07:40:52;10.97;;;3.10;;
75429;SDS011;64127;51.488;5.462;2023-09-19T07:43:24;8.57;;;3.20;;
75429;SDS011;64127;51.488;5.462;2023-09-19T07:45:56;7.40;;;2.93;;
75429;SDS011;64127;51.488;5.462;2023-09-19T07:48:32;11.93;;;3.50;;
75429;SDS011;64127;51.488;5.462;2023-09-19T07:51:05;11.90;;;3.23;;
75429;SDS011;64127;51.488;5.462;2023-09-19T07:53:40;7.20;;;2.67;;
75429;SDS011;64127;51.488;5.462;2023-09-19T07:56:13;10.20;;;3.30;;
75429;SDS011;64127;51.488;5.462;2023-09-19T07:58:45;8.50;;;2.90;;
75429;SDS011;64127;51.488;5.462;2023-09-19T08:01:18;8.27;;;3.17;;
75429;SDS011;64127;51.488;5.462;2023-09-19T08:03:50;8.87;;;2.87;;
75429;SDS011;64127;51.488;5.462;2023-09-19T08:06:22;8.20;;;3.00;;
75429;SDS011;64127;51.488;5.462;2023-09-19T08:08:54;9.97;;;3.13;;
75429;SDS011;64127;51.488;5.462;2023-09-19T08:11:28;12.03;;;3.70;;
75429;SDS011;64127;51.488;5.462;2023-09-19T08:14:02;13.03;;;3.03;;
75429;SDS011;64127;51.488;5.462;2023-09-19T08:16:34;10.50;;;3.30;;
75429;SDS011;64127;51.488;5.462;2023-09-19T08:19:07;13.13;;;3.57;;
75429;SDS011;64127;51.488;5.462;2023-09-19T08:21:39;9.93;;;3.03;;
75429;SDS011;64127;51.488;5.462;2023-09-19T08:24:11;7.27;;;2.73;;
75429;SDS011;64127;51.488;5.462;2023-09-19T08:26:43;9.67;;;2.90;;
75429;SDS011;64127;51.488;5.462;2023-09-19T08:29:16;8.63;;;2.90;;
75429;SDS011;64127;51.488;5.462;2023-09-19T08:31:48;11.30;;;3.10;;
75429;SDS011;64127;51.488;5.462;2023-09-19T08:34:25;9.27;;;2.97;;
75429;SDS011;64127;51.488;5.462;2023-09-19T08:36:58;8.87;;;2.77;;
75429;SDS011;64127;51.488;5.462;2023-09-19T08:39:31;12.20;;;3.30;;
75429;SDS011;64127;51.488;5.462;2023-09-19T08:42:04;9.83;;;3.07;;
75429;SDS011;64127;51.488;5.462;2023-09-19T08:44:39;9.63;;;2.80;;
75429;SDS011;64127;51.488;5.462;2023-09-19T08:47:15;7.80;;;2.80;;
75429;SDS011;64127;51.488;5.462;2023-09-19T08:52:46;8.77;;;2.80;;
75429;SDS011;64127;51.488;5.462;2023-09-19T08:55:23;9.40;;;2.90;;
75429;SDS011;64127;51.488;5.462;2023-09-19T08:58:00;9.17;;;2.93;;
75429;SDS011;64127;51.488;5.462;2023-09-19T09:00:36;6.80;;;2.67;;
75429;SDS011;64127;51.488;5.462;2023-09-19T09:03:09;12.40;;;3.30;;
75429;SDS011;64127;51.488;5.462;2023-09-19T09:05:43;8.63;;;2.80;;
75429;SDS011;64127;51.488;5.462;2023-09-19T09:08:19;9.20;;;2.93;;
75429;SDS011;64127;51.488;5.462;2023-09-19T09:10:53;11.23;;;3.90;;
75429;SDS011;64127;51.488;5.462;2023-09-19T09:13:25;17.00;;;3.40;;
75429;SDS011;64127;51.488;5.462;2023-09-19T09:15:57;8.63;;;3.07;;
75429;SDS011;64127;51.488;5.462;2023-09-19T09:18:30;9.90;;;3.40;;
75429;SDS011;64127;51.488;5.462;2023-09-19T09:21:03;8.80;;;3.10;;
75429;SDS011;64127;51.488;5.462;2023-09-19T09:23:35;8.10;;;3.00;;
75429;SDS011;64127;51.488;5.462;2023-09-19T09:26:08;8.47;;;3.10;;
75429;SDS011;64127;51.488;5.462;2023-09-19T09:28:44;7.77;;;2.80;;
75429;SDS011;64127;51.488;5.462;2023-09-19T09:31:22;10.63;;;3.40;;
75429;SDS011;64127;51.488;5.462;2023-09-19T09:33:56;9.57;;;3.00;;
75429;SDS011;64127;51.488;5.462;2023-09-19T09:36:39;10.27;;;3.30;;
75429;SDS011;64127;51.488;5.462;2023-09-19T09:39:13;10.53;;;3.27;;
75429;SDS011;64127;51.488;5.462;2023-09-19T09:41:56;7.13;;;3.27;;
75429;SDS011;64127;51.488;5.462;2023-09-19T09:44:30;9.77;;;3.10;;
75429;SDS011;64127;51.488;5.462;2023-09-19T09:47:04;9.63;;;3.40;;
75429;SDS011;64127;51.488;5.462;2023-09-19T09:50:14;9.53;;;3.27;;
75429;SDS011;64127;51.488;5.462;2023-09-19T09:53:27;13.23;;;3.73;;
75429;SDS011;64127;51.488;5.462;2023-09-19T09:56:06;7.63;;;2.97;;
75429;SDS011;64127;51.488;5.462;2023-09-19T09:58:49;10.73;;;3.07;;
75429;SDS011;64127;51.488;5.462;2023-09-19T10:01:45;8.00;;;3.43;;
75429;SDS011;64127;51.488;5.462;2023-09-19T10:04:29;10.27;;;3.37;;
75429;SDS011;64127;51.488;5.462;2023-09-19T10:07:08;8.93;;;3.03;;
75429;SDS011;64127;51.488;5.462;2023-09-19T10:09:45;7.43;;;2.73;;
75429;SDS011;64127;51.488;5.462;2023-09-19T10:12:20;9.53;;;3.30;;
75429;SDS011;64127;51.488;5.462;2023-09-19T10:14:53;8.50;;;2.77;;
75429;SDS011;64127;51.488;5.462;2023-09-19T10:17:29;9.63;;;3.07;;
75429;SDS011;64127;51.488;5.462;2023-09-19T10:20:06;10.73;;;3.00;;
75429;SDS011;64127;51.488;5.462;2023-09-19T10:22:50;7.23;;;3.03;;
75429;SDS011;64127;51.488;5.462;2023-09-19T10:25:29;8.07;;;2.83;;
75429;SDS011;64127;51.488;5.462;2023-09-19T10:28:08;7.63;;;2.80;;
75429;SDS011;64127;51.488;5.462;2023-09-19T10:30:44;7.47;;;2.67;;
75429;SDS011;64127;51.488;5.462;2023-09-19T10:33:21;9.77;;;3.00;;
75429;SDS011;64127;51.488;5.462;2023-09-19T10:35:58;6.33;;;2.50;;
75429;SDS011;64127;51.488;5.462;2023-09-19T10:38:31;6.93;;;2.73;;
75429;SDS011;64127;51.488;5.462;2023-09-19T10:41:07;7.23;;;2.80;;
75429;SDS011;64127;51.488;5.462;2023-09-19T10:43:42;7.23;;;2.80;;
75429;SDS011;64127;51.488;5.462;2023-09-19T10:46:19;10.20;;;2.90;;
75429;SDS011;64127;51.488;5.462;2023-09-19T10:48:52;10.20;;;3.10;;
75429;SDS011;64127;51.488;5.462;2023-09-19T10:51:26;7.30;;;2.97;;
75429;SDS011;64127;51.488;5.462;2023-09-19T10:54:10;8.57;;;2.50;;
75429;SDS011;64127;51.488;5.462;2023-09-19T10:56:50;7.97;;;2.70;;
75429;SDS011;64127;51.488;5.462;2023-09-19T10:59:24;6.77;;;2.70;;
75429;SDS011;64127;51.488;5.462;2023-09-19T11:01:57;9.20;;;2.90;;
75429;SDS011;64127;51.488;5.462;2023-09-19T11:04:30;7.67;;;2.50;;
75429;SDS011;64127;51.488;5.462;2023-09-19T11:07:14;10.00;;;2.67;;
75429;SDS011;64127;51.488;5.462;2023-09-19T11:27:08;5.80;;;2.27;;
75429;SDS011;64127;51.488;5.462;2023-09-19T11:29:45;4.13;;;1.83;;
75429;SDS011;64127;51.488;5.462;2023-09-19T11:32:21;5.03;;;2.10;;
75429;SDS011;64127;51.488;5.462;2023-09-19T11:49:30;5.77;;;1.87;;
75429;SDS011;64127;51.488;5.462;2023-09-19T11:52:04;5.33;;;2.00;;
75429;SDS011;64127;51.488;5.462;2023-09-19T11:54:37;3.83;;;1.60;;
75429;SDS011;64127;51.488;5.462;2023-09-19T11:57:13;5.43;;;1.93;;
75429;SDS011;64127;51.488;5.462;2023-09-19T11:59:52;5.00;;;1.80;;
75429;SDS011;64127;51.488;5.462;2023-09-19T12:02:35;6.50;;;1.70;;
75429;SDS011;64127;51.488;5.462;2023-09-19T12:05:12;4.60;;;1.70;;
75429;SDS011;64127;51.488;5.462;2023-09-19T12:07:46;3.50;;;1.60;;
75429;SDS011;64127;51.488;5.462;2023-09-19T12:10:19;5.20;;;1.80;;
75429;SDS011;64127;51.488;5.462;2023-09-19T12:12:54;3.40;;;1.50;;
75429;SDS011;64127;51.488;5.462;2023-09-19T12:15:28;4.67;;;1.53;;
75429;SDS011;64127;51.488;5.462;2023-09-19T12:18:05;5.90;;;1.80;;
75429;SDS011;64127;51.488;5.462;2023-09-19T12:20:42;4.87;;;2.00;;
75429;SDS011;64127;51.488;5.462;2023-09-19T12:23:21;3.87;;;1.57;;
75429;SDS011;64127;51.488;5.462;2023-09-19T12:25:54;4.60;;;1.60;;
75429;SDS011;64127;51.488;5.462;2023-09-19T12:28:29;2.70;;;1.60;;
75429;SDS011;64127;51.488;5.462;2023-09-19T12:31:06;3.77;;;1.60;;
75429;SDS011;64127;51.488;5.462;2023-09-19T12:33:39;4.00;;;1.63;;
75429;SDS011;64127;51.488;5.462;2023-09-19T12:36:19;2.67;;;1.40;;
75429;SDS011;64127;51.488;5.462;2023-09-19T12:39:00;3.67;;;1.80;;
75429;SDS011;64127;51.488;5.462;2023-09-19T12:41:32;3.30;;;1.47;;
75429;SDS011;64127;51.488;5.462;2023-09-19T12:44:04;3.07;;;1.33;;
75429;SDS011;64127;51.488;5.462;2023-09-19T12:46:40;3.47;;;1.47;;
75429;SDS011;64127;51.488;5.462;2023-09-19T12:49:17;3.23;;;1.40;;
75429;SDS011;64127;51.488;5.462;2023-09-19T12:51:51;5.03;;;1.70;;
75429;SDS011;64127;51.488;5.462;2023-09-19T12:54:37;3.03;;;1.60;;
75429;SDS011;64127;51.488;5.462;2023-09-19T12:57:23;4.60;;;1.40;;
75429;SDS011;64127;51.488;5.462;2023-09-19T12:59:57;3.27;;;1.50;;
75429;SDS011;64127;51.488;5.462;2023-09-19T13:02:29;2.73;;;1.60;;
75429;SDS011;64127;51.488;5.462;2023-09-19T13:05:01;3.47;;;1.40;;
75429;SDS011;64127;51.488;5.462;2023-09-19T13:07:42;2.67;;;1.50;;
75429;SDS011;64127;51.488;5.462;2023-09-19T13:10:15;3.63;;;1.53;;
75429;SDS011;64127;51.488;5.462;2023-09-19T13:12:47;6.53;;;1.70;;
75429;SDS011;64127;51.488;5.462;2023-09-19T13:15:20;2.30;;;1.23;;
75429;SDS011;64127;51.488;5.462;2023-09-19T13:17:53;4.60;;;1.60;;
75429;SDS011;64127;51.488;5.462;2023-09-19T13:20:26;3.73;;;1.50;;
75429;SDS011;64127;51.488;5.462;2023-09-19T13:22:59;2.53;;;1.30;;
75429;SDS011;64127;51.488;5.462;2023-09-19T13:25:37;2.47;;;1.20;;
75429;SDS011;64127;51.488;5.462;2023-09-19T13:28:11;2.27;;;1.20;;
75429;SDS011;64127;51.488;5.462;2023-09-19T13:30:43;6.30;;;1.50;;
75429;SDS011;64127;51.488;5.462;2023-09-19T13:33:16;2.50;;;1.37;;
75429;SDS011;64127;51.488;5.462;2023-09-19T13:35:52;3.70;;;1.63;;
75429;SDS011;64127;51.488;5.462;2023-09-19T13:38:24;4.33;;;1.47;;
75429;SDS011;64127;51.488;5.462;2023-09-19T13:40:56;5.00;;;1.50;;
75429;SDS011;64127;51.488;5.462;2023-09-19T13:43:28;2.50;;;1.37;;
75429;SDS011;64127;51.488;5.462;2023-09-19T13:46:00;4.53;;;1.33;;
75429;SDS011;64127;51.488;5.462;2023-09-19T13:48:34;2.80;;;1.40;;
75429;SDS011;64127;51.488;5.462;2023-09-19T13:51:06;2.27;;;1.20;;
75429;SDS011;64127;51.488;5.462;2023-09-19T13:53:39;5.20;;;1.20;;
75429;SDS011;64127;51.488;5.462;2023-09-19T13:56:11;4.47;;;1.47;;
75429;SDS011;64127;51.488;5.462;2023-09-19T13:58:43;3.43;;;1.43;;
75429;SDS011;64127;51.488;5.462;2023-09-19T14:01:15;3.17;;;1.80;;
75429;SDS011;64127;51.488;5.462;2023-09-19T14:03:47;3.80;;;1.90;;
75429;SDS011;64127;51.488;5.462;2023-09-19T14:06:20;4.50;;;1.77;;
75429;SDS011;64127;51.488;5.462;2023-09-19T14:08:52;2.97;;;1.50;;
75429;SDS011;64127;51.488;5.462;2023-09-19T14:11:24;3.60;;;1.33;;
75429;SDS011;64127;51.488;5.462;2023-09-19T14:13:57;4.47;;;1.70;;
75429;SDS011;64127;51.488;5.462;2023-09-19T14:16:30;5.83;;;1.80;;
75429;SDS011;64127;51.488;5.462;2023-09-19T14:19:02;2.73;;;1.30;;
75429;SDS011;64127;51.488;5.462;2023-09-19T14:21:34;3.93;;;1.70;;
75429;SDS011;64127;51.488;5.462;2023-09-19T14:24:08;3.30;;;1.40;;
75429;SDS011;64127;51.488;5.462;2023-09-19T14:26:43;4.57;;;1.70;;
75429;SDS011;64127;51.488;5.462;2023-09-19T14:29:16;3.73;;;1.40;;
75429;SDS011;64127;51.488;5.462;2023-09-19T14:31:48;4.43;;;1.40;;
75429;SDS011;64127;51.488;5.462;2023-09-19T14:34:21;3.63;;;1.70;;
75429;SDS011;64127;51.488;5.462;2023-09-19T14:36:53;4.07;;;1.67;;
75429;SDS011;64127;51.488;5.462;2023-09-19T14:39:28;2.73;;;1.47;;
75429;SDS011;64127;51.488;5.462;2023-09-19T14:42:00;4.63;;;1.77;;
75429;SDS011;64127;51.488;5.462;2023-09-19T14:44:32;2.80;;;1.47;;
75429;SDS011;64127;51.488;5.462;2023-09-19T14:47:04;3.93;;;1.53;;
75429;SDS011;64127;51.488;5.462;2023-09-19T14:49:37;3.77;;;1.53;;
75429;SDS011;64127;51.488;5.462;2023-09-19T14:52:09;3.47;;;1.60;;
75429;SDS011;64127;51.488;5.462;2023-09-19T14:54:44;6.83;;;1.80;;
75429;SDS011;64127;51.488;5.462;2023-09-19T14:57:16;4.70;;;1.40;;
75429;SDS011;64127;51.488;5.462;2023-09-19T14:59:48;5.23;;;1.60;;
75429;SDS011;64127;51.488;5.462;2023-09-19T15:02:20;3.50;;;1.30;;
75429;SDS011;64127;51.488;5.462;2023-09-19T15:04:52;2.63;;;1.60;;
75429;SDS011;64127;51.488;5.462;2023-09-19T15:07:24;4.07;;;1.47;;
75429;SDS011;64127;51.488;5.462;2023-09-19T15:09:58;3.37;;;1.50;;
75429;SDS011;64127;51.488;5.462;2023-09-19T15:12:30;2.10;;;1.30;;
75429;SDS011;64127;51.488;5.462;2023-09-19T15:15:02;3.27;;;1.53;;
75429;SDS011;64127;51.488;5.462;2023-09-19T15:17:39;3.03;;;1.47;;
75429;SDS011;64127;51.488;5.462;2023-09-19T15:20:11;5.70;;;2.00;;
75429;SDS011;64127;51.488;5.462;2023-09-19T15:22:45;4.17;;;1.43;;
75429;SDS011;64127;51.488;5.462;2023-09-19T15:25:17;4.87;;;1.50;;
75429;SDS011;64127;51.488;5.462;2023-09-19T15:27:49;3.40;;;1.60;;
75429;SDS011;64127;51.488;5.462;2023-09-19T15:30:21;5.03;;;1.70;;
75429;SDS011;64127;51.488;5.462;2023-09-19T15:32:54;2.67;;;1.60;;
75429;SDS011;64127;51.488;5.462;2023-09-19T15:35:26;5.80;;;1.67;;
75429;SDS011;64127;51.488;5.462;2023-09-19T15:37:58;4.13;;;1.70;;
75429;SDS011;64127;51.488;5.462;2023-09-19T15:40:31;3.33;;;1.70;;
75429;SDS011;64127;51.488;5.462;2023-09-19T15:43:03;4.53;;;1.90;;
75429;SDS011;64127;51.488;5.462;2023-09-19T15:45:35;6.90;;;1.83;;
75429;SDS011;64127;51.488;5.462;2023-09-19T15:48:07;6.27;;;2.13;;
75429;SDS011;64127;51.488;5.462;2023-09-19T15:50:39;4.47;;;1.50;;
75429;SDS011;64127;51.488;5.462;2023-09-19T15:53:13;4.00;;;1.70;;
75429;SDS011;64127;51.488;5.462;2023-09-19T15:55:45;4.67;;;2.07;;
75429;SDS011;64127;51.488;5.462;2023-09-19T15:58:17;5.07;;;1.77;;
75429;SDS011;64127;51.488;5.462;2023-09-19T16:00:49;2.43;;;1.50;;
75429;SDS011;64127;51.488;5.462;2023-09-19T16:03:21;3.60;;;1.80;;
75429;SDS011;64127;51.488;5.462;2023-09-19T16:05:55;4.07;;;1.87;;
75429;SDS011;64127;51.488;5.462;2023-09-19T16:08:27;5.20;;;1.90;;
75429;SDS011;64127;51.488;5.462;2023-09-19T16:10:59;5.60;;;2.03;;
75429;SDS011;64127;51.488;5.462;2023-09-19T16:13:31;3.53;;;1.77;;
75429;SDS011;64127;51.488;5.462;2023-09-19T16:16:04;3.03;;;1.50;;